KMFE/MFE METAR and TAF weather

Enter ICAO airport designator
Station Type Date Time Source
KMFE METAR 2021/05/13 00:14 UTC NOAA

KMFE 130014Z 35010KT 10SM SCT024 OVC032 24/18 A3009 RMK AO2 T02440183 PNO $


Station Type Date Time Source
KMFE Decoded METAR 2021/05/13 00:14 UTC NOAA

MCALLEN MILLER INTERNATIONAL AIRPORT , TX, United States (KMFE) 26-11N 98-15W 38M
May 12, 2021 - 08:14 PM EDT / 2021.05.13 0014 UTC
Wind: from the N (350 degrees) at 12 MPH (10 KT):0
Visibility: 10 mile(s):0
Sky conditions: overcast
Temperature: 75.9 F (24.4 C)
Dew Point: 64.9 F (18.3 C)
Relative Humidity: 68%
Pressure (altimeter): 30.09 in. Hg (1018 hPa)
ob: KMFE 130014Z 35010KT 10SM SCT024 OVC032 24/18 A3009 RMK AO2 T02440183 PNO
cycle: 0

Station Type Date Time Source
KMFE TAF 2021/05/12 22:30 UTC NOAA

TAF
AMD KMFE 122228Z 1222/1318 35009KT P6SM OVC018
FM130400 36009KT P6SM OVC021
FM130900 35010KT P6SM BKN030 PROB30 1312/1318 4SM -SHRA BR OVC015

Example: see airport list